Time;durP1;ratioP1;P1;durP2;ratioP2;P2;SDS_P1;SDS_P2;PMS_P1;PMS_P2;Temp;Humidity;BMP_temperature;BMP_pressure;BME280_temperature;BME280_humidity;BME280_pressure;Samples;Min_cycle;Max_cycle;Signal;HPM_P1;HPM_P2
2021/06/04 00:01:21;;;;;;;1.83;1.30;;;23.30;42.80;;;;;;5034920;28;20044;-59
2021/06/04 00:03:47;;;;;;;1.77;1.33;;;23.40;42.80;;;;;;5034495;28;20037;-58
2021/06/04 00:06:14;;;;;;;1.20;1.10;;;23.40;42.80;;;;;;5033502;28;20037;-59
2021/06/04 00:08:40;;;;;;;1.65;1.13;;;23.40;42.80;;;;;;5032612;28;20046;-58
2021/06/04 00:11:15;;;;;;;1.52;1.10;;;23.40;42.70;;;;;;5033350;28;20507;-59
2021/06/04 00:13:45;;;;;;;;;;;23.30;42.70;;;;;;5033487;28;20037;-59
2021/06/04 00:16:16;;;;;;;1.20;1.10;;;23.30;42.60;;;;;;5046978;28;20367;-58
2021/06/04 00:18:43;;;;;;;1.25;1.15;;;23.40;42.70;;;;;;5033303;28;20079;-58
2021/06/04 00:21:20;;;;;;;1.30;1.20;;;23.30;42.60;;;;;;5033570;28;20042;-58
2021/06/04 00:23:46;;;;;;;1.63;1.20;;;23.30;42.50;;;;;;5032808;28;20498;-59
2021/06/04 00:26:13;;;;;;;2.03;1.38;;;23.30;42.50;;;;;;5034194;28;20123;-59
2021/06/04 00:28:39;;;;;;;2.25;1.20;;;23.30;42.50;;;;;;5033379;28;20040;-58
2021/06/04 00:31:05;;;;;;;1.90;1.77;;;23.30;42.50;;;;;;5031500;28;20021;-59
2021/06/04 00:33:32;;;;;;;0.93;0.93;;;23.30;42.40;;;;;;5033611;28;20029;-59
2021/06/04 00:35:58;;;;;;;2.45;1.20;;;23.30;42.50;;;;;;5032423;28;20079;-59
2021/06/04 00:38:24;;;;;;;2.08;1.50;;;23.30;42.50;;;;;;5033313;28;20029;-59
2021/06/04 00:40:53;;;;;;;2.78;1.40;;;23.40;43.10;;;;;;5034180;28;20037;-60
2021/06/04 00:43:20;;;;;;;2.28;1.35;;;23.30;42.30;;;;;;5035201;28;20025;-59
2021/06/04 00:45:49;;;;;;;1.90;1.00;;;23.30;42.30;;;;;;5033850;28;20087;-59
2021/06/04 00:48:15;;;;;;;2.13;0.80;;;23.30;42.30;;;;;;5032702;28;20028;-59
2021/06/04 00:50:58;;;;;;;2.45;1.23;;;23.30;42.30;;;;;;5032841;28;21823;-59
2021/06/04 00:53:25;;;;;;;1.55;1.10;;;23.40;42.40;;;;;;5033965;28;20044;-59
2021/06/04 00:55:52;;;;;;;1.13;0.95;;;23.30;42.30;;;;;;5033485;28;20108;-59
2021/06/04 00:58:24;;;;;;;1.40;1.23;;;23.30;42.30;;;;;;5033783;28;20492;-59
2021/06/04 01:00:53;;;;;;;1.77;1.15;;;23.40;42.30;;;;;;5038635;28;20160;-59
2021/06/04 01:03:22;;;;;;;2.20;1.00;;;23.30;42.20;;;;;;5033676;28;20133;-59
2021/06/04 01:05:48;;;;;;;3.08;1.30;;;23.30;42.90;;;;;;5032481;28;20044;-59
2021/06/04 01:08:33;;;;;;;1.70;1.20;;;23.30;42.20;;;;;;5032871;28;20033;-58
2021/06/04 01:10:59;;;;;;;1.10;1.00;;;23.30;42.10;;;;;;5034543;28;20480;-58
2021/06/04 01:13:50;;;;;;;1.67;1.17;;;23.30;42.10;;;;;;5034244;28;20067;-58
2021/06/04 01:16:48;;;;;;;1.00;1.00;;;23.40;42.10;;;;;;5031779;28;20570;-58
2021/06/04 01:19:42;;;;;;;1.10;1.02;;;23.30;42.10;;;;;;5034769;28;20380;-58
2021/06/04 01:22:13;;;;;;;3.63;1.27;;;23.30;42.00;;;;;;5035686;28;20570;-58
2021/06/04 01:24:52;;;;;;;1.30;1.10;;;23.30;42.00;;;;;;5036315;28;20033;-58
2021/06/04 01:27:41;;;;;;;1.70;0.90;;;23.30;42.10;;;;;;5038129;28;20038;-58
2021/06/04 01:30:21;;;;;;;1.20;1.10;;;23.30;42.10;;;;;;5037103;28;20025;-58
2021/06/04 01:32:48;;;;;;;1.27;1.08;;;23.30;42.00;;;;;;5037138;28;20259;-59
2021/06/04 01:35:20;;;;;;;2.58;1.13;;;23.30;41.90;;;;;;5036046;28;20029;-59
2021/06/04 01:37:47;;;;;;;1.38;1.10;;;23.30;42.00;;;;;;5036112;28;20029;-59
2021/06/04 01:40:23;;;;;;;1.30;1.20;;;23.30;42.00;;;;;;5037475;28;20369;-60
2021/06/04 01:42:49;;;;;;;1.20;1.10;;;23.30;41.90;;;;;;5036974;28;20022;-59
2021/06/04 01:45:24;;;;;;;3.05;1.40;;;23.30;41.90;;;;;;5037145;28;20498;-59
2021/06/04 01:47:54;;;;;;;1.00;1.00;;;23.30;41.90;;;;;;5037757;28;20444;-60
2021/06/04 01:50:32;;;;;;;2.50;1.65;;;23.30;41.90;;;;;;5034969;28;20389;-59
2021/06/04 01:53:03;;;;;;;1.30;1.10;;;23.30;41.80;;;;;;5034441;28;20041;-59
2021/06/04 01:55:34;;;;;;;2.22;1.60;;;23.30;41.90;;;;;;5037301;28;20068;-59
2021/06/04 01:58:02;;;;;;;4.25;1.10;;;23.30;41.80;;;;;;5037583;28;20055;-58
2021/06/04 02:00:36;;;;;;;1.83;1.45;;;23.30;41.70;;;;;;5035705;28;20059;-59
2021/06/04 02:03:02;;;;;;;3.00;1.05;;;23.30;41.80;;;;;;5035978;28;20108;-59
2021/06/04 02:05:35;;;;;;;1.73;1.00;;;23.30;41.80;;;;;;5035487;28;20156;-59
2021/06/04 02:08:01;;;;;;;1.15;1.00;;;23.30;41.80;;;;;;5035075;28;20029;-58
2021/06/04 02:10:38;;;;;;;1.15;1.02;;;23.30;41.80;;;;;;5037037;28;20410;-59
2021/06/04 02:13:06;;;;;;;1.52;1.10;;;23.30;41.90;;;;;;5036331;28;20515;-59
2021/06/04 02:15:36;;;;;;;0.90;0.90;;;23.30;41.80;;;;;;5035619;28;20063;-59
2021/06/04 02:18:30;;;;;;;0.95;0.85;;;23.20;41.80;;;;;;5037852;28;20030;-59
2021/06/04 02:21:20;;;;;;;1.13;0.90;;;23.20;41.80;;;;;;5034922;28;20034;-59
2021/06/04 02:23:53;;;;;;;1.98;1.13;;;23.20;41.80;;;;;;5034603;28;20651;-58
2021/06/04 02:26:26;;;;;;;2.70;1.00;;;23.30;41.80;;;;;;5035816;28;20391;-59
2021/06/04 02:29:07;;;;;;;1.88;0.98;;;23.30;41.80;;;;;;5036847;28;20387;-58
2021/06/04 02:31:45;;;;;;;2.03;1.00;;;23.30;41.70;;;;;;5034016;28;20124;-59
2021/06/04 02:34:23;;;;;;;1.67;1.00;;;23.20;41.80;;;;;;5034570;28;20025;-59
2021/06/04 02:36:57;;;;;;;2.33;1.15;;;23.30;41.80;;;;;;5034621;28;20045;-59
2021/06/04 02:39:33;;;;;;;2.77;1.27;;;23.20;41.70;;;;;;5035976;28;20033;-59
2021/06/04 02:42:06;;;;;;;1.83;0.95;;;23.20;41.60;;;;;;5036092;28;20282;-59
2021/06/04 02:44:38;;;;;;;1.38;0.85;;;23.20;41.70;;;;;;5036106;28;20033;-59
2021/06/04 02:47:14;;;;;;;1.70;1.10;;;23.30;41.80;;;;;;5036085;28;20021;-59
2021/06/04 02:49:41;;;;;;;1.10;1.10;;;23.20;41.70;;;;;;5033662;28;20033;-59
2021/06/04 02:52:26;;;;;;;4.03;1.20;;;23.20;41.70;;;;;;5033515;28;20100;-59
2021/06/04 02:54:52;;;;;;;1.33;1.05;;;23.20;41.70;;;;;;5034154;28;20067;-59
2021/06/04 02:57:22;;;;;;;2.08;0.90;;;23.20;41.70;;;;;;5034485;28;20041;-57
2021/06/04 02:59:49;;;;;;;1.15;0.95;;;23.20;41.70;;;;;;5034177;28;20400;-59
2021/06/04 03:02:16;;;;;;;2.85;1.30;;;23.20;42.30;;;;;;5035001;28;20047;-58
2021/06/04 03:04:46;;;;;;;1.15;0.80;;;23.20;41.60;;;;;;5034191;28;20025;-59
2021/06/04 03:07:19;;;;;;;1.20;1.10;;;23.20;41.70;;;;;;5032498;28;20451;-59
2021/06/04 03:09:46;;;;;;;0.93;0.93;;;23.20;41.60;;;;;;5035294;28;20036;-58
2021/06/04 03:12:17;;;;;;;1.00;0.90;;;23.20;42.30;;;;;;5035063;28;20059;-59
2021/06/04 03:14:47;;;;;;;2.40;1.00;;;23.30;41.60;;;;;;5034489;28;20029;-58
2021/06/04 03:17:13;;;;;;;2.28;1.00;;;23.20;41.60;;;;;;5034093;28;20029;-58
2021/06/04 03:19:40;;;;;;;1.17;1.08;;;23.20;41.50;;;;;;5034599;28;20048;-58
2021/06/04 03:22:22;;;;;;;1.10;1.00;;;23.20;41.60;;;;;;5035711;28;20025;-58
2021/06/04 03:24:48;;;;;;;2.20;1.10;;;23.20;41.60;;;;;;5035252;28;20061;-59
2021/06/04 03:27:16;;;;;;;3.05;0.88;;;23.20;41.50;;;;;;5035831;28;20029;-59
2021/06/04 03:29:42;;;;;;;1.13;1.02;;;23.20;41.50;;;;;;5035614;28;20040;-59
2021/06/04 03:32:10;;;;;;;2.13;1.25;;;23.20;41.60;;;;;;5034789;28;20452;-58
2021/06/04 03:34:37;;;;;;;1.48;0.98;;;23.20;41.60;;;;;;5034735;28;20399;-58
2021/06/04 03:37:04;;;;;;;1.90;1.33;;;23.20;41.60;;;;;;5035657;28;20024;-58
2021/06/04 03:39:34;;;;;;;1.38;1.08;;;23.20;42.20;;;;;;5034893;28;20063;-59
2021/06/04 03:42:02;;;;;;;1.33;1.00;;;23.20;41.60;;;;;;5034232;28;20052;-58
2021/06/04 03:44:32;;;;;;;0.93;0.93;;;23.20;41.70;;;;;;5035131;28;20048;-58
2021/06/04 03:46:58;;;;;;;1.85;1.40;;;23.20;41.70;;;;;;5034647;28;20030;-58
2021/06/04 03:49:25;;;;;;;1.70;1.17;;;23.20;41.70;;;;;;5034171;28;20030;-58
2021/06/04 03:51:54;;;;;;;2.38;1.05;;;23.20;41.70;;;;;;5032858;28;20118;-59
2021/06/04 03:54:28;;;;;;;0.93;0.93;;;23.20;41.70;;;;;;5034306;28;20091;-59
2021/06/04 03:56:55;;;;;;;1.30;0.90;;;23.20;41.70;;;;;;5034797;28;20041;-58
2021/06/04 03:59:21;;;;;;;1.35;1.00;;;23.20;41.70;;;;;;5033992;28;20036;-59
2021/06/04 04:01:52;;;;;;;3.65;1.00;;;23.20;41.70;;;;;;5033026;28;20116;-59
2021/06/04 04:04:18;;;;;;;1.02;0.95;;;23.20;41.70;;;;;;5033627;28;20032;-59
2021/06/04 04:06:44;;;;;;;1.10;1.00;;;23.20;41.70;;;;;;5033167;28;20689;-58
2021/06/04 04:09:11;;;;;;;1.50;1.00;;;23.20;41.70;;;;;;5034875;28;20029;-58
2021/06/04 04:11:38;;;;;;;1.55;0.70;;;23.20;41.70;;;;;;5033823;28;20056;-59
2021/06/04 04:14:05;;;;;;;1.42;0.93;;;23.20;41.70;;;;;;5033432;28;20014;-58
2021/06/04 04:16:30;;;;;;;1.58;1.10;;;23.20;41.70;;;;;;5016361;28;20200;-59
2021/06/04 04:18:56;;;;;;;2.08;1.25;;;23.20;41.70;;;;;;5033763;28;20064;-58
2021/06/04 04:21:22;;;;;;;1.80;0.80;;;23.20;41.70;;;;;;5030839;28;20034;-58
2021/06/04 04:23:56;;;;;;;1.30;1.20;;;23.20;41.70;;;;;;5032443;28;20026;-58
2021/06/04 04:26:32;;;;;;;1.38;0.90;;;23.20;41.70;;;;;;5033794;28;20069;-59
2021/06/04 04:28:58;;;;;;;1.55;1.20;;;23.20;41.70;;;;;;5036050;28;20033;-58
2021/06/04 04:31:29;;;;;;;3.42;0.90;;;23.20;41.70;;;;;;5032361;28;20033;-58
2021/06/04 04:33:57;;;;;;;1.30;1.20;;;23.20;41.70;;;;;;5035058;28;20148;-58
2021/06/04 04:36:28;;;;;;;1.30;1.20;;;23.20;41.70;;;;;;5032207;28;20087;-59
2021/06/04 04:38:54;;;;;;;1.65;1.42;;;23.20;41.50;;;;;;5033452;28;20112;-60
2021/06/04 04:41:20;;;;;;;5.63;1.70;;;23.30;41.40;;;;;;5033150;28;20521;-60
2021/06/04 04:43:50;;;;;;;1.17;1.08;;;23.20;41.20;;;;;;5034269;28;20112;-60
2021/06/04 04:46:26;;;;;;;4.32;1.30;;;23.30;41.30;;;;;;5034230;28;20060;-59
2021/06/04 04:48:52;;;;;;;2.67;1.40;;;23.20;41.30;;;;;;5033716;28;20025;-58
2021/06/04 04:51:19;;;;;;;1.23;1.13;;;23.30;41.20;;;;;;5033111;28;20033;-58
2021/06/04 04:53:45;;;;;;;1.40;0.88;;;23.30;41.20;;;;;;5031029;28;20026;-59
2021/06/04 04:56:11;;;;;;;2.30;0.80;;;23.30;41.30;;;;;;5037414;28;20552;-60
2021/06/04 04:58:37;;;;;;;1.83;1.27;;;23.30;41.30;;;;;;5032509;28;20029;-60
2021/06/04 05:01:06;;;;;;;2.20;1.00;;;23.30;41.20;;;;;;5037021;28;20439;-59
2021/06/04 05:03:32;;;;;;;2.13;1.10;;;23.30;41.20;;;;;;5036945;28;20021;-62
2021/06/04 05:05:57;;;;;;;1.05;0.93;;;23.30;41.30;;;;;;5035571;28;20087;-61
2021/06/04 05:08:23;;;;;;;1.58;1.00;;;23.30;41.30;;;;;;5036041;28;20065;-60
2021/06/04 05:10:49;;;;;;;2.67;1.00;;;23.30;41.30;;;;;;5030789;28;20026;-59
2021/06/04 05:13:15;;;;;;;8.20;0.90;;;23.30;41.30;;;;;;5033603;28;20641;-60
2021/06/04 05:15:42;;;;;;;3.08;1.00;;;23.30;41.20;;;;;;5031727;28;20051;-62
2021/06/04 05:18:11;;;;;;;3.67;1.10;;;23.30;41.20;;;;;;5033459;28;20035;-60
2021/06/04 05:20:37;;;;;;;6.72;1.10;;;23.30;41.10;;;;;;5032684;28;21891;-58
2021/06/04 05:23:04;;;;;;;7.57;1.50;;;23.30;41.10;;;;;;5031751;28;20040;-58
2021/06/04 05:25:40;;;;;;;3.65;1.23;;;23.40;41.10;;;;;;5035181;28;20054;-60
2021/06/04 05:28:08;;;;;;;1.65;1.00;;;23.40;41.10;;;;;;5035824;28;20025;-57
2021/06/04 05:30:38;;;;;;;3.88;1.15;;;23.40;41.10;;;;;;5036342;28;20025;-59
2021/06/04 05:33:06;;;;;;;7.78;1.80;;;22.80;41.60;;;;;;5032239;28;20044;-59
2021/06/04 05:35:32;;;;;;;2.20;1.20;;;22.90;41.70;;;;;;5033674;28;20060;-60
2021/06/04 05:37:58;;;;;;;1.55;1.10;;;23.00;41.60;;;;;;5033866;28;20135;-58
2021/06/04 05:40:31;;;;;;;2.00;1.42;;;23.10;41.50;;;;;;5034222;28;20104;-58
2021/06/04 05:42:58;;;;;;;6.10;1.70;;;23.10;41.50;;;;;;5034079;28;20549;-58
2021/06/04 05:45:29;;;;;;;4.35;2.00;;;23.00;41.70;;;;;;5035108;28;20033;-59
2021/06/04 05:47:55;;;;;;;2.30;1.75;;;22.70;41.20;;;;;;5028207;28;20055;-59
2021/06/04 05:50:26;;;;;;;1.77;1.35;;;22.60;41.70;;;;;;5033911;28;20448;-59
2021/06/04 05:52:52;;;;;;;2.75;1.23;;;22.70;41.70;;;;;;5033564;28;20033;-62
2021/06/04 05:55:21;;;;;;;4.60;1.10;;;22.80;41.60;;;;;;5034243;28;20088;-58
2021/06/04 05:57:47;;;;;;;2.90;1.13;;;22.90;41.50;;;;;;5035219;28;20396;-59
2021/06/04 06:00:19;;;;;;;6.40;2.13;;;23.00;41.50;;;;;;5036547;28;20016;-59
2021/06/04 06:02:46;;;;;;;4.93;1.02;;;23.00;41.40;;;;;;5035982;28;20021;-59
2021/06/04 06:05:12;;;;;;;0.98;0.90;;;23.10;41.50;;;;;;5034494;28;20056;-58
2021/06/04 06:07:38;;;;;;;1.73;0.95;;;23.10;41.40;;;;;;5028748;28;20088;-58
2021/06/04 06:10:05;;;;;;;1.23;1.00;;;23.10;41.50;;;;;;5033612;28;20060;-59
2021/06/04 06:12:31;;;;;;;1.10;1.00;;;23.10;41.40;;;;;;5035820;28;20049;-60
2021/06/04 06:14:57;;;;;;;0.68;0.68;;;23.20;41.40;;;;;;5035383;28;20064;-60
2021/06/04 06:17:23;;;;;;;1.65;0.88;;;23.20;41.30;;;;;;5036103;28;20041;-59
2021/06/04 06:19:49;;;;;;;1.10;1.00;;;23.20;41.30;;;;;;5033804;28;20587;-60
2021/06/04 06:22:15;;;;;;;1.23;0.80;;;23.20;41.30;;;;;;5034524;28;20036;-61
2021/06/04 06:24:41;;;;;;;4.63;0.90;;;23.20;41.30;;;;;;5034017;28;20104;-59
2021/06/04 06:27:07;;;;;;;1.65;1.00;;;23.20;41.30;;;;;;5034302;28;20143;-59
2021/06/04 06:29:36;;;;;;;5.22;1.70;;;23.20;41.20;;;;;;5035672;28;20025;-59
2021/06/04 06:32:06;;;;;;;1.98;1.50;;;23.10;41.50;;;;;;5033819;28;20067;-58
2021/06/04 06:34:33;;;;;;;4.32;1.20;;;23.10;41.20;;;;;;5032548;28;20308;-58
2021/06/04 06:36:59;;;;;;;2.45;1.20;;;23.10;41.20;;;;;;5035832;28;20041;-60
2021/06/04 06:39:28;;;;;;;2.55;1.42;;;23.10;41.30;;;;;;5033954;28;20017;-59
2021/06/04 06:41:56;;;;;;;2.38;1.15;;;23.10;41.30;;;;;;5035063;28;20384;-59
2021/06/04 06:44:22;;;;;;;1.98;1.00;;;23.10;41.20;;;;;;5034950;28;20025;-58
2021/06/04 06:46:51;;;;;;;1.70;1.02;;;23.20;41.30;;;;;;5034632;28;20031;-58
2021/06/04 06:49:17;;;;;;;3.92;1.27;;;23.10;41.20;;;;;;5033643;28;20024;-58
2021/06/04 06:51:43;;;;;;;2.75;0.90;;;23.10;41.20;;;;;;5033441;28;20040;-59
2021/06/04 06:54:15;;;;;;;2.40;1.05;;;23.10;41.80;;;;;;5033045;28;20503;-59
2021/06/04 06:56:42;;;;;;;3.72;1.30;;;23.20;41.30;;;;;;5033795;28;20171;-58
2021/06/04 06:59:08;;;;;;;2.85;1.02;;;23.10;41.20;;;;;;5034376;28;20119;-58
2021/06/04 07:01:36;;;;;;;1.45;1.00;;;23.10;41.10;;;;;;5034529;28;20044;-58
2021/06/04 07:04:01;;;;;;;1.60;1.00;;;23.20;41.10;;;;;;5035387;28;20029;-59
2021/06/04 07:06:30;;;;;;;2.63;0.85;;;23.20;41.10;;;;;;5034424;28;20510;-59
2021/06/04 07:08:57;;;;;;;0.95;0.80;;;23.20;41.10;;;;;;5034537;28;20033;-59
2021/06/04 07:11:27;;;;;;;1.40;0.93;;;23.20;41.10;;;;;;5033271;28;20064;-58
2021/06/04 07:13:55;;;;;;;0.95;0.90;;;23.20;41.10;;;;;;5034066;28;20131;-58
2021/06/04 07:16:21;;;;;;;2.60;0.90;;;23.20;41.10;;;;;;5034497;28;20377;-59
2021/06/04 07:18:50;;;;;;;0.60;0.60;;;23.20;41.00;;;;;;5040606;28;20037;-59
2021/06/04 07:21:16;;;;;;;1.15;0.80;;;23.20;41.00;;;;;;5031821;28;20038;-58
2021/06/04 07:23:42;;;;;;;1.25;0.80;;;23.20;41.00;;;;;;5031873;28;20099;-61
2021/06/04 07:26:08;;;;;;;1.90;1.10;;;23.20;41.00;;;;;;5036043;28;20024;-60
2021/06/04 07:28:39;;;;;;;1.85;1.00;;;23.20;40.90;;;;;;5035494;28;20030;-60
2021/06/04 07:31:08;;;;;;;0.82;0.75;;;23.20;40.90;;;;;;5031235;28;20024;-60
2021/06/04 07:33:49;;;;;;;1.65;0.75;;;23.20;40.90;;;;;;5033798;28;20045;-61
2021/06/04 07:36:25;;;;;;;0.77;0.77;;;23.20;40.90;;;;;;5033217;28;20590;-61
2021/06/04 07:38:52;;;;;;;0.57;0.57;;;23.20;40.90;;;;;;5034405;28;20030;-59
2021/06/04 07:41:20;;;;;;;1.85;0.70;;;23.20;40.90;;;;;;5034447;28;20023;-60
2021/06/04 07:43:47;;;;;;;1.00;0.70;;;23.20;40.80;;;;;;5034145;28;20547;-60
2021/06/04 07:46:14;;;;;;;1.00;0.77;;;23.20;40.80;;;;;;5034560;28;20438;-60
2021/06/04 07:48:40;;;;;;;0.80;0.80;;;23.20;40.80;;;;;;5035019;28;20372;-60
2021/06/04 07:51:12;;;;;;;0.80;0.80;;;23.20;40.80;;;;;;5034133;28;20028;-60
2021/06/04 07:53:41;;;;;;;0.60;0.60;;;23.20;40.80;;;;;;5047299;28;20120;-61
2021/06/04 07:56:09;;;;;;;0.90;0.90;;;23.20;41.40;;;;;;5034002;28;20496;-60
2021/06/04 07:58:35;;;;;;;0.70;0.70;;;23.20;40.70;;;;;;5036099;28;20036;-60
2021/06/04 08:01:03;;;;;;;0.98;0.63;;;23.20;40.70;;;;;;5035590;28;20025;-60
2021/06/04 08:03:31;;;;;;;0.77;0.60;;;23.20;40.70;;;;;;5034673;28;20052;-61
2021/06/04 08:05:57;;;;;;;0.70;0.70;;;23.20;40.70;;;;;;5031269;28;20542;-60
2021/06/04 08:08:23;;;;;;;2.85;0.80;;;23.20;40.60;;;;;;5033687;28;20037;-61
2021/06/04 08:10:50;;;;;;;2.17;0.70;;;23.20;40.60;;;;;;5033854;28;20017;-60
2021/06/04 08:13:19;;;;;;;5.03;0.90;;;23.20;40.60;;;;;;5034794;28;20534;-60
2021/06/04 08:15:52;;;;;;;1.50;0.75;;;23.20;40.50;;;;;;5033387;28;20056;-60
2021/06/04 08:18:23;;;;;;;1.70;0.80;;;23.20;40.50;;;;;;5033586;28;20089;-60
2021/06/04 08:20:50;;;;;;;3.72;0.93;;;23.20;40.50;;;;;;5032085;28;20242;-60
2021/06/04 08:23:23;;;;;;;1.00;0.70;;;23.20;40.40;;;;;;5038439;28;20092;-59
2021/06/04 08:25:51;;;;;;;0.82;0.82;;;23.20;40.40;;;;;;5034081;28;20079;-61
2021/06/04 08:28:19;;;;;;;1.75;1.38;;;23.30;40.40;;;;;;5033543;28;20033;-59
2021/06/04 08:30:47;;;;;;;1.48;0.65;;;23.20;40.40;;;;;;5036923;28;20025;-58
2021/06/04 08:33:26;;;;;;;2.45;0.70;;;23.30;40.40;;;;;;5038092;28;20128;-60
2021/06/04 08:35:52;;;;;;;1.20;0.70;;;23.30;40.40;;;;;;5036957;28;20040;-61
2021/06/04 08:38:18;;;;;;;2.33;0.70;;;23.30;40.40;;;;;;5035826;28;20029;-60
2021/06/04 08:40:44;;;;;;;4.22;0.90;;;23.30;40.40;;;;;;5037027;28;20024;-60
2021/06/04 08:43:28;;;;;;;0.98;0.70;;;23.30;40.30;;;;;;5037772;28;20126;-60
2021/06/04 08:46:26;;;;;;;2.70;0.57;;;23.30;40.30;;;;;;5035261;28;20247;-63
2021/06/04 08:49:07;;;;;;;1.92;1.15;;;23.30;40.30;;;;;;5034602;28;20053;-60
2021/06/04 08:51:45;;;;;;;3.35;1.38;;;23.10;39.80;;;;;;5035376;28;20031;-57
2021/06/04 08:54:30;;;;;;;1.45;1.30;;;23.00;39.90;;;;;;5036026;28;20024;-60
2021/06/04 08:57:16;;;;;;;2.92;1.50;;;23.00;40.00;;;;;;5037572;28;20531;-59
2021/06/04 08:59:44;;;;;;;2.58;1.15;;;23.00;40.20;;;;;;5036015;28;20128;-60
2021/06/04 09:02:37;;;;;;;1.20;1.10;;;22.90;40.10;;;;;;5035668;28;20476;-61
2021/06/04 09:05:12;;;;;;;3.10;1.63;;;22.90;40.00;;;;;;5033023;28;20076;-60
2021/06/04 09:07:45;;;;;;;3.45;1.40;;;22.90;40.20;;;;;;5043044;28;20501;-61
2021/06/04 09:10:25;;;;;;;3.30;1.52;;;22.90;40.20;;;;;;5039444;28;20140;-61
2021/06/04 09:13:13;;;;;;;1.75;1.25;;;22.90;40.00;;;;;;5034955;28;20423;-61
2021/06/04 09:15:42;;;;;;;3.47;1.92;;;22.90;40.10;;;;;;5035927;28;20495;-59
2021/06/04 09:18:14;;;;;;;5.15;1.50;;;22.90;40.20;;;;;;5026094;28;20380;-60
2021/06/04 09:20:49;;;;;;;4.20;1.67;;;22.90;40.20;;;;;;5032346;28;20025;-62
2021/06/04 09:23:20;;;;;;;2.67;1.67;;;22.90;40.30;;;;;;5036799;28;20120;-61
2021/06/04 09:25:46;;;;;;;3.17;1.30;;;22.90;41.00;;;;;;5026752;28;20167;-61
2021/06/04 09:28:12;;;;;;;2.80;1.40;;;22.90;40.20;;;;;;5031903;28;20454;-60
2021/06/04 09:30:45;;;;;;;2.80;1.67;;;22.90;40.20;;;;;;5033375;28;20030;-60
2021/06/04 09:33:22;;;;;;;2.10;1.90;;;22.90;40.20;;;;;;5035460;28;20442;-60
2021/06/04 09:35:59;;;;;;;3.03;1.77;;;22.90;40.20;;;;;;5029066;28;20056;-61
2021/06/04 09:38:33;;;;;;;5.38;1.80;;;22.90;40.00;;;;;;5034608;28;20067;-60
2021/06/04 09:41:26;;;;;;;2.67;2.03;;;23.00;40.10;;;;;;5035569;28;20049;-61
2021/06/04 09:44:31;;;;;;;1.70;1.38;;;22.90;40.00;;;;;;5027987;28;20278;-63
2021/06/04 09:47:15;;;;;;;3.03;1.40;;;23.00;40.00;;;;;;4994921;28;20133;-69
2021/06/04 09:49:43;;;;;;;1.83;1.67;;;23.00;39.80;;;;;;4995897;28;20780;-65
2021/06/04 09:52:31;;;;;;;3.30;1.95;;;23.00;40.00;;;;;;5019727;28;20049;-65
2021/06/04 09:55:19;;;;;;;3.95;2.30;;;23.00;39.90;;;;;;5034855;28;20021;-65
2021/06/04 09:58:06;;;;;;;6.82;1.98;;;23.00;40.00;;;;;;5032632;28;20037;-64
2021/06/04 10:00:47;;;;;;;5.03;1.77;;;23.00;40.00;;;;;;5038761;28;20130;-61
2021/06/04 10:03:21;;;;;;;4.88;1.73;;;23.10;40.00;;;;;;5036406;28;20062;-61
2021/06/04 10:05:50;;;;;;;5.53;1.83;;;23.10;40.00;;;;;;5032520;28;20036;-60
2021/06/04 10:08:28;;;;;;;2.28;2.08;;;23.10;40.00;;;;;;5033263;28;20420;-60
2021/06/04 10:11:11;;;;;;;1.70;1.50;;;23.10;40.00;;;;;;5034672;28;20355;-60
2021/06/04 10:13:49;;;;;;;2.05;1.50;;;23.10;40.00;;;;;;5033109;28;20045;-59
2021/06/04 10:16:39;;;;;;;4.60;2.20;;;23.10;40.00;;;;;;5035407;28;20034;-59
2021/06/04 10:19:42;;;;;;;5.15;2.03;;;23.10;40.20;;;;;;5035617;28;20124;-60
2021/06/04 10:22:14;;;;;;;3.25;1.58;;;23.20;40.40;;;;;;5033291;28;20261;-60
2021/06/04 10:24:51;;;;;;;7.65;1.90;;;23.10;40.10;;;;;;5031911;28;20036;-60
2021/06/04 10:27:34;;;;;;;5.03;2.00;;;23.10;40.20;;;;;;5032968;28;20052;-60
2021/06/04 10:30:23;;;;;;;1.67;1.50;;;23.10;40.40;;;;;;5034546;28;20037;-60
2021/06/04 10:33:07;;;;;;;4.13;1.80;;;23.00;40.20;;;;;;5033677;28;20179;-61
2021/06/04 10:35:46;;;;;;;2.50;1.90;;;23.10;41.20;;;;;;5033331;28;20113;-60
2021/06/04 10:38:20;;;;;;;2.72;2.25;;;23.10;40.80;;;;;;5032894;28;20036;-61
2021/06/04 10:40:52;;;;;;;4.40;2.03;;;23.10;40.40;;;;;;5035309;28;20070;-59
2021/06/04 10:43:39;;;;;;;2.15;1.80;;;23.10;40.40;;;;;;5033970;28;20515;-61
2021/06/04 10:46:23;;;;;;;4.30;2.67;;;23.10;40.30;;;;;;5034098;28;20074;-61
2021/06/04 10:48:55;;;;;;;2.20;1.70;;;23.10;40.40;;;;;;5034475;28;20021;-61
2021/06/04 10:51:53;;;;;;;3.60;1.80;;;23.00;40.50;;;;;;5033751;28;20387;-61
2021/06/04 10:54:40;;;;;;;4.70;2.38;;;23.10;40.40;;;;;;5035002;28;20107;-61
2021/06/04 10:57:26;;;;;;;3.33;1.70;;;23.10;39.70;;;;;;5034099;28;20037;-61
2021/06/04 11:00:15;;;;;;;4.15;2.17;;;23.10;40.20;;;;;;5034329;28;20079;-61
2021/06/04 11:03:10;;;;;;;3.70;2.13;;;23.20;40.30;;;;;;5035586;28;20545;-62
2021/06/04 11:06:01;;;;;;;7.03;1.92;;;23.20;40.20;;;;;;5032387;28;20033;-62
2021/06/04 11:08:54;;;;;;;4.45;2.00;;;23.20;40.20;;;;;;5034120;28;20037;-61
2021/06/04 11:11:39;;;;;;;3.00;1.50;;;23.20;39.90;;;;;;5033289;28;20415;-62
2021/06/04 11:14:23;;;;;;;2.20;1.75;;;23.20;40.20;;;;;;5036367;28;20056;-63
2021/06/04 11:17:00;;;;;;;9.18;2.10;;;23.10;39.90;;;;;;5038934;28;20047;-62
2021/06/04 11:19:45;;;;;;;7.05;2.00;;;23.10;39.60;;;;;;5034408;28;20121;-63
2021/06/04 11:22:20;;;;;;;4.00;1.95;;;23.10;39.90;;;;;;5034093;28;20036;-62
2021/06/04 11:24:49;;;;;;;2.63;1.90;;;23.00;40.10;;;;;;5034251;28;20049;-63
2021/06/04 11:27:28;;;;;;;2.45;1.88;;;23.00;40.40;;;;;;5035404;28;20052;-62
2021/06/04 11:29:55;;;;;;;5.13;1.92;;;23.00;40.40;;;;;;5036377;28;20142;-62
2021/06/04 11:32:32;;;;;;;2.08;1.90;;;23.10;40.30;;;;;;5034280;28;20487;-62
2021/06/04 11:35:16;;;;;;;5.57;2.50;;;23.10;40.30;;;;;;5035442;28;20578;-62
2021/06/04 11:38:07;;;;;;;2.83;1.80;;;23.10;39.60;;;;;;5035479;28;20171;-62
2021/06/04 11:40:38;;;;;;;2.50;2.08;;;23.00;40.00;;;;;;5035397;28;20029;-61
2021/06/04 11:43:12;;;;;;;3.85;1.80;;;22.90;39.90;;;;;;5027338;28;20048;-62
2021/06/04 11:45:39;;;;;;;2.83;1.90;;;22.90;39.80;;;;;;5014771;28;20690;-61
2021/06/04 11:48:20;;;;;;;2.67;2.10;;;22.90;40.00;;;;;;5015207;28;20037;-62
2021/06/04 11:50:47;;;;;;;2.60;2.00;;;22.90;39.90;;;;;;5014104;28;20449;-62
2021/06/04 11:53:45;;;;;;;4.30;1.90;;;22.80;40.00;;;;;;5014045;28;20116;-64
2021/06/04 11:56:32;;;;;;;3.33;1.95;;;22.80;40.40;;;;;;5005075;28;20034;-63
2021/06/04 11:58:58;;;;;;;4.70;1.90;;;22.90;40.20;;;;;;5008018;28;20041;-63
2021/06/04 12:01:24;;;;;;;2.50;1.50;;;23.00;40.10;;;;;;5014187;28;20033;-62
2021/06/04 12:04:06;;;;;;;5.88;1.65;;;23.10;40.00;;;;;;5014293;28;20026;-63
2021/06/04 12:06:55;;;;;;;1.30;1.10;;;23.20;40.00;;;;;;5016769;28;20088;-63
2021/06/04 12:09:30;;;;;;;2.55;1.58;;;23.20;40.10;;;;;;5013794;28;20044;-63
2021/06/04 12:12:15;;;;;;;2.08;1.77;;;23.20;40.10;;;;;;5017241;28;20046;-63
2021/06/04 12:15:02;;;;;;;1.38;1.15;;;23.30;40.20;;;;;;5016295;28;20029;-63
2021/06/04 12:17:36;;;;;;;1.80;1.63;;;23.30;40.30;;;;;;4995655;28;20128;-63
2021/06/04 12:20:26;;;;;;;1.95;1.38;;;23.30;40.10;;;;;;5013363;28;20033;-63
2021/06/04 12:23:02;;;;;;;2.20;1.50;;;23.30;40.10;;;;;;5013399;28;20032;-63
2021/06/04 12:25:49;;;;;;;2.70;1.80;;;23.30;39.90;;;;;;5015018;28;20053;-62
2021/06/04 12:28:18;;;;;;;3.92;1.90;;;23.30;40.00;;;;;;5030793;28;20586;-63
2021/06/04 12:30:52;;;;;;;2.45;1.33;;;23.40;40.10;;;;;;5014850;28;20040;-63
2021/06/04 12:33:37;;;;;;;2.42;1.75;;;23.40;40.20;;;;;;5029025;28;20041;-63
2021/06/04 12:36:23;;;;;;;3.88;1.42;;;23.40;40.20;;;;;;5015136;28;20061;-64
2021/06/04 12:38:49;;;;;;;3.55;2.00;;;23.40;40.30;;;;;;5011732;28;20510;-62
2021/06/04 12:41:23;;;;;;;4.90;1.58;;;23.40;40.40;;;;;;5011922;28;20038;-62
2021/06/04 12:43:52;;;;;;;3.47;1.90;;;23.50;40.40;;;;;;5010561;28;20116;-61
2021/06/04 12:46:22;;;;;;;1.70;1.60;;;23.50;40.00;;;;;;5010175;28;20115;-62
2021/06/04 12:49:08;;;;;;;2.25;1.98;;;23.50;40.00;;;;;;5012461;28;20373;-62
2021/06/04 12:51:44;;;;;;;1.75;1.60;;;23.50;40.00;;;;;;5011242;28;20029;-63
2021/06/04 12:54:19;;;;;;;4.43;2.03;;;23.50;40.00;;;;;;5009889;28;20056;-61
2021/06/04 12:56:47;;;;;;;2.97;1.60;;;23.50;39.80;;;;;;5011742;28;20037;-62
2021/06/04 12:59:17;;;;;;;2.22;1.83;;;23.40;39.70;;;;;;5027537;28;20034;-59
2021/06/04 13:02:07;;;;;;;1.88;1.40;;;23.40;39.60;;;;;;5026624;28;20030;-61
2021/06/04 13:04:36;;;;;;;4.35;1.95;;;23.40;39.70;;;;;;5012209;28;20033;-61
2021/06/04 13:07:09;;;;;;;3.47;1.83;;;23.40;39.40;;;;;;5014187;28;20542;-60
2021/06/04 13:09:41;;;;;;;2.08;1.60;;;23.40;39.10;;;;;;5011791;28;20136;-62
2021/06/04 13:12:19;;;;;;;1.73;1.42;;;23.40;40.20;;;;;;5013275;28;20088;-61
2021/06/04 13:14:47;;;;;;;2.50;1.50;;;23.50;41.00;;;;;;5026349;28;20037;-63
2021/06/04 13:17:14;;;;;;;1.60;1.50;;;23.50;40.60;;;;;;5014644;28;20764;-62